sensor_id;sensor_type;location;lat;lon;timestamp;temperature;humidity
7494;DHT22;3788;49.902;8.590;2023-08-30T00:00:31;15.70;99.90
7494;DHT22;3788;49.902;8.590;2023-08-30T00:02:57;15.70;99.90
7494;DHT22;3788;49.902;8.590;2023-08-30T00:05:24;15.60;99.90
7494;DHT22;3788;49.902;8.590;2023-08-30T00:07:53;15.60;99.90
7494;DHT22;3788;49.902;8.590;2023-08-30T00:10:20;15.70;99.90
7494;DHT22;3788;49.902;8.590;2023-08-30T00:12:46;15.70;99.90
7494;DHT22;3788;49.902;8.590;2023-08-30T00:15:15;15.70;99.90
7494;DHT22;3788;49.902;8.590;2023-08-30T00:17:42;15.70;99.90
7494;DHT22;3788;49.902;8.590;2023-08-30T00:20:09;15.80;99.90
7494;DHT22;3788;49.902;8.590;2023-08-30T00:22:37;15.80;99.90
7494;DHT22;3788;49.902;8.590;2023-08-30T00:25:05;15.80;99.90
7494;DHT22;3788;49.902;8.590;2023-08-30T00:27:32;15.80;99.90
7494;DHT22;3788;49.902;8.590;2023-08-30T00:29:58;15.80;99.90
7494;DHT22;3788;49.902;8.590;2023-08-30T00:32:26;15.80;99.90
7494;DHT22;3788;49.902;8.590;2023-08-30T00:34:53;15.80;99.90
7494;DHT22;3788;49.902;8.590;2023-08-30T00:37:20;15.90;99.90
7494;DHT22;3788;49.902;8.590;2023-08-30T00:39:46;15.90;99.90
7494;DHT22;3788;49.902;8.590;2023-08-30T00:42:13;15.90;99.90
7494;DHT22;3788;49.902;8.590;2023-08-30T00:44:40;15.90;99.90
7494;DHT22;3788;49.902;8.590;2023-08-30T00:47:06;15.90;99.90
7494;DHT22;3788;49.902;8.590;2023-08-30T00:49:35;15.90;99.90
7494;DHT22;3788;49.902;8.590;2023-08-30T00:52:03;15.90;99.90
7494;DHT22;3788;49.902;8.590;2023-08-30T00:54:32;15.90;99.90
7494;DHT22;3788;49.902;8.590;2023-08-30T00:57:00;15.90;99.90
7494;DHT22;3788;49.902;8.590;2023-08-30T00:59:27;15.90;99.90
7494;DHT22;3788;49.902;8.590;2023-08-30T01:01:54;15.90;99.90
7494;DHT22;3788;49.902;8.590;2023-08-30T01:04:21;16.00;99.90
7494;DHT22;3788;49.902;8.590;2023-08-30T01:06:50;16.00;99.90
7494;DHT22;3788;49.902;8.590;2023-08-30T01:09:18;16.00;99.90
7494;DHT22;3788;49.902;8.590;2023-08-30T01:11:50;16.00;99.90
7494;DHT22;3788;49.902;8.590;2023-08-30T01:14:22;16.00;99.90
7494;DHT22;3788;49.902;8.590;2023-08-30T01:16:49;16.00;99.90
7494;DHT22;3788;49.902;8.590;2023-08-30T01:19:31;16.00;99.90
7494;DHT22;3788;49.902;8.590;2023-08-30T01:22:08;16.00;99.90
7494;DHT22;3788;49.902;8.590;2023-08-30T01:24:45;16.00;99.90
7494;DHT22;3788;49.902;8.590;2023-08-30T01:27:17;16.00;99.90
7494;DHT22;3788;49.902;8.590;2023-08-30T01:29:46;16.00;99.90
7494;DHT22;3788;49.902;8.590;2023-08-30T01:32:13;16.00;99.90
7494;DHT22;3788;49.902;8.590;2023-08-30T01:34:41;16.00;99.90
7494;DHT22;3788;49.902;8.590;2023-08-30T01:37:11;16.00;99.90
7494;DHT22;3788;49.902;8.590;2023-08-30T01:39:40;16.00;99.90
7494;DHT22;3788;49.902;8.590;2023-08-30T01:42:08;16.00;99.90
7494;DHT22;3788;49.902;8.590;2023-08-30T01:44:38;16.00;99.90
7494;DHT22;3788;49.902;8.590;2023-08-30T01:47:07;16.00;99.90
7494;DHT22;3788;49.902;8.590;2023-08-30T01:49:34;16.00;99.90
7494;DHT22;3788;49.902;8.590;2023-08-30T01:52:03;15.90;99.90
7494;DHT22;3788;49.902;8.590;2023-08-30T01:54:31;15.90;99.90
7494;DHT22;3788;49.902;8.590;2023-08-30T01:56:58;16.00;99.90
7494;DHT22;3788;49.902;8.590;2023-08-30T01:59:25;16.00;99.90
7494;DHT22;3788;49.902;8.590;2023-08-30T02:01:53;16.00;99.90
7494;DHT22;3788;49.902;8.590;2023-08-30T02:04:19;16.00;99.90
7494;DHT22;3788;49.902;8.590;2023-08-30T02:06:50;15.90;99.90
7494;DHT22;3788;49.902;8.590;2023-08-30T02:09:22;15.90;99.90
7494;DHT22;3788;49.902;8.590;2023-08-30T02:11:51;15.90;99.90
7494;DHT22;3788;49.902;8.590;2023-08-30T02:14:20;15.90;99.90
7494;DHT22;3788;49.902;8.590;2023-08-30T02:16:57;15.90;99.90
7494;DHT22;3788;49.902;8.590;2023-08-30T02:19:25;15.90;99.90
7494;DHT22;3788;49.902;8.590;2023-08-30T02:21:52;16.00;99.90
7494;DHT22;3788;49.902;8.590;2023-08-30T02:24:18;16.00;99.90
7494;DHT22;3788;49.902;8.590;2023-08-30T02:26:45;16.00;99.90
7494;DHT22;3788;49.902;8.590;2023-08-30T02:29:12;16.00;99.90
7494;DHT22;3788;49.902;8.590;2023-08-30T02:31:39;16.00;99.90
7494;DHT22;3788;49.902;8.590;2023-08-30T02:34:07;16.00;99.90
7494;DHT22;3788;49.902;8.590;2023-08-30T02:36:41;16.00;99.90
7494;DHT22;3788;49.902;8.590;2023-08-30T02:39:08;16.00;99.90
7494;DHT22;3788;49.902;8.590;2023-08-30T02:41:34;15.90;99.90
7494;DHT22;3788;49.902;8.590;2023-08-30T02:44:01;15.90;99.90
7494;DHT22;3788;49.902;8.590;2023-08-30T02:46:28;15.90;99.90
7494;DHT22;3788;49.902;8.590;2023-08-30T02:48:54;15.90;99.90
7494;DHT22;3788;49.902;8.590;2023-08-30T02:51:22;15.90;99.90
7494;DHT22;3788;49.902;8.590;2023-08-30T02:53:49;15.90;99.90
7494;DHT22;3788;49.902;8.590;2023-08-30T02:56:16;15.90;99.90
7494;DHT22;3788;49.902;8.590;2023-08-30T02:58:42;15.80;99.90
7494;DHT22;3788;49.902;8.590;2023-08-30T03:01:09;15.80;99.90
7494;DHT22;3788;49.902;8.590;2023-08-30T03:03:37;15.90;99.90
7494;DHT22;3788;49.902;8.590;2023-08-30T03:06:03;15.80;99.90
7494;DHT22;3788;49.902;8.590;2023-08-30T03:08:31;15.80;99.90
7494;DHT22;3788;49.902;8.590;2023-08-30T03:11:08;15.80;99.90
7494;DHT22;3788;49.902;8.590;2023-08-30T03:13:34;15.80;99.90
7494;DHT22;3788;49.902;8.590;2023-08-30T03:16:02;15.80;99.90
7494;DHT22;3788;49.902;8.590;2023-08-30T03:18:36;15.80;99.90
7494;DHT22;3788;49.902;8.590;2023-08-30T03:21:02;15.80;99.90
7494;DHT22;3788;49.902;8.590;2023-08-30T03:23:31;15.90;99.90
7494;DHT22;3788;49.902;8.590;2023-08-30T03:25:58;15.90;99.90
7494;DHT22;3788;49.902;8.590;2023-08-30T03:28:25;15.90;99.90
7494;DHT22;3788;49.902;8.590;2023-08-30T03:30:52;15.90;99.90
7494;DHT22;3788;49.902;8.590;2023-08-30T03:33:19;15.90;99.90
7494;DHT22;3788;49.902;8.590;2023-08-30T03:35:46;15.90;99.90
7494;DHT22;3788;49.902;8.590;2023-08-30T03:38:12;15.90;99.90
7494;DHT22;3788;49.902;8.590;2023-08-30T03:40:40;15.90;99.90
7494;DHT22;3788;49.902;8.590;2023-08-30T03:43:07;15.90;99.90
7494;DHT22;3788;49.902;8.590;2023-08-30T03:45:35;15.90;99.90
7494;DHT22;3788;49.902;8.590;2023-08-30T03:48:02;15.90;99.90
7494;DHT22;3788;49.902;8.590;2023-08-30T03:50:29;15.90;99.90
7494;DHT22;3788;49.902;8.590;2023-08-30T03:52:55;15.90;99.90
7494;DHT22;3788;49.902;8.590;2023-08-30T03:55:22;15.90;99.90
7494;DHT22;3788;49.902;8.590;2023-08-30T03:57:50;15.80;99.90
7494;DHT22;3788;49.902;8.590;2023-08-30T04:00:17;15.80;99.90
7494;DHT22;3788;49.902;8.590;2023-08-30T04:02:43;15.80;99.90
7494;DHT22;3788;49.902;8.590;2023-08-30T04:05:10;15.80;99.90
7494;DHT22;3788;49.902;8.590;2023-08-30T04:07:37;15.80;99.90
7494;DHT22;3788;49.902;8.590;2023-08-30T04:10:04;15.80;99.90
7494;DHT22;3788;49.902;8.590;2023-08-30T04:12:32;15.80;99.90
7494;DHT22;3788;49.902;8.590;2023-08-30T04:15:01;15.80;99.90
7494;DHT22;3788;49.902;8.590;2023-08-30T04:17:28;15.70;99.90
7494;DHT22;3788;49.902;8.590;2023-08-30T04:19:55;15.70;99.90
7494;DHT22;3788;49.902;8.590;2023-08-30T04:22:22;15.70;99.90
7494;DHT22;3788;49.902;8.590;2023-08-30T04:24:48;15.70;99.90
7494;DHT22;3788;49.902;8.590;2023-08-30T04:27:16;15.70;99.90
7494;DHT22;3788;49.902;8.590;2023-08-30T04:29:42;15.80;99.90
7494;DHT22;3788;49.902;8.590;2023-08-30T04:32:11;15.80;99.90
7494;DHT22;3788;49.902;8.590;2023-08-30T04:34:38;15.80;99.90
7494;DHT22;3788;49.902;8.590;2023-08-30T04:37:05;15.80;99.90
7494;DHT22;3788;49.902;8.590;2023-08-30T04:39:32;15.80;99.90
7494;DHT22;3788;49.902;8.590;2023-08-30T04:41:58;15.80;99.90
7494;DHT22;3788;49.902;8.590;2023-08-30T04:44:25;15.70;99.90
7494;DHT22;3788;49.902;8.590;2023-08-30T04:46:53;15.70;99.90
7494;DHT22;3788;49.902;8.590;2023-08-30T04:49:21;15.70;99.90
7494;DHT22;3788;49.902;8.590;2023-08-30T04:51:50;15.70;99.90
7494;DHT22;3788;49.902;8.590;2023-08-30T04:54:17;15.70;99.90
7494;DHT22;3788;49.902;8.590;2023-08-30T04:56:44;15.70;99.90
7494;DHT22;3788;49.902;8.590;2023-08-30T04:59:10;15.80;99.90
7494;DHT22;3788;49.902;8.590;2023-08-30T05:01:37;15.80;99.90
7494;DHT22;3788;49.902;8.590;2023-08-30T05:04:07;15.80;99.90
7494;DHT22;3788;49.902;8.590;2023-08-30T05:06:35;15.80;99.90
7494;DHT22;3788;49.902;8.590;2023-08-30T05:09:02;15.80;99.90
7494;DHT22;3788;49.902;8.590;2023-08-30T05:11:29;15.80;99.90
7494;DHT22;3788;49.902;8.590;2023-08-30T05:13:56;15.80;99.90
7494;DHT22;3788;49.902;8.590;2023-08-30T05:16:23;15.80;99.90
7494;DHT22;3788;49.902;8.590;2023-08-30T05:18:49;15.90;99.90
7494;DHT22;3788;49.902;8.590;2023-08-30T05:21:16;15.90;99.90
7494;DHT22;3788;49.902;8.590;2023-08-30T05:23:45;15.90;99.90
7494;DHT22;3788;49.902;8.590;2023-08-30T05:26:12;16.00;99.90
7494;DHT22;3788;49.902;8.590;2023-08-30T05:28:39;16.00;99.90
7494;DHT22;3788;49.902;8.590;2023-08-30T05:31:06;16.00;99.90
7494;DHT22;3788;49.902;8.590;2023-08-30T05:33:33;16.00;99.90
7494;DHT22;3788;49.902;8.590;2023-08-30T05:35:59;16.00;99.90
7494;DHT22;3788;49.902;8.590;2023-08-30T05:38:27;16.00;99.90
7494;DHT22;3788;49.902;8.590;2023-08-30T05:40:55;16.00;99.90
7494;DHT22;3788;49.902;8.590;2023-08-30T05:43:22;16.10;99.90
7494;DHT22;3788;49.902;8.590;2023-08-30T05:45:49;16.10;99.90
7494;DHT22;3788;49.902;8.590;2023-08-30T05:48:15;16.20;99.90
7494;DHT22;3788;49.902;8.590;2023-08-30T05:50:42;16.20;99.90
7494;DHT22;3788;49.902;8.590;2023-08-30T05:53:10;16.10;99.90
7494;DHT22;3788;49.902;8.590;2023-08-30T05:55:37;16.20;99.90
7494;DHT22;3788;49.902;8.590;2023-08-30T05:58:05;16.20;99.90
7494;DHT22;3788;49.902;8.590;2023-08-30T06:00:32;16.30;99.90
7494;DHT22;3788;49.902;8.590;2023-08-30T06:02:58;16.30;99.90
7494;DHT22;3788;49.902;8.590;2023-08-30T06:05:26;16.30;99.90
7494;DHT22;3788;49.902;8.590;2023-08-30T06:07:52;16.40;99.90
7494;DHT22;3788;49.902;8.590;2023-08-30T06:10:19;16.40;99.90
7494;DHT22;3788;49.902;8.590;2023-08-30T06:12:46;16.50;99.90
7494;DHT22;3788;49.902;8.590;2023-08-30T06:15:14;16.50;99.90
7494;DHT22;3788;49.902;8.590;2023-08-30T06:17:41;16.50;99.90
7494;DHT22;3788;49.902;8.590;2023-08-30T06:20:08;16.60;99.90
7494;DHT22;3788;49.902;8.590;2023-08-30T06:22:35;16.60;99.90
7494;DHT22;3788;49.902;8.590;2023-08-30T06:25:01;16.60;99.90
7494;DHT22;3788;49.902;8.590;2023-08-30T06:27:29;16.60;99.90
7494;DHT22;3788;49.902;8.590;2023-08-30T06:29:56;16.60;99.90
7494;DHT22;3788;49.902;8.590;2023-08-30T06:32:24;16.60;99.90
7494;DHT22;3788;49.902;8.590;2023-08-30T06:34:51;16.60;99.90
7494;DHT22;3788;49.902;8.590;2023-08-30T06:37:18;16.70;99.90
7494;DHT22;3788;49.902;8.590;2023-08-30T06:39:44;16.70;99.90
7494;DHT22;3788;49.902;8.590;2023-08-30T06:42:11;16.80;99.90
7494;DHT22;3788;49.902;8.590;2023-08-30T06:44:38;16.80;99.90
7494;DHT22;3788;49.902;8.590;2023-08-30T06:47:06;16.80;99.90
7494;DHT22;3788;49.902;8.590;2023-08-30T06:49:34;16.90;99.90
7494;DHT22;3788;49.902;8.590;2023-08-30T06:52:00;17.00;99.90
7494;DHT22;3788;49.902;8.590;2023-08-30T06:54:28;17.00;99.90
7494;DHT22;3788;49.902;8.590;2023-08-30T06:56:58;17.10;99.90
7494;DHT22;3788;49.902;8.590;2023-08-30T06:59:25;17.10;99.90
7494;DHT22;3788;49.902;8.590;2023-08-30T07:01:52;17.10;99.90
7494;DHT22;3788;49.902;8.590;2023-08-30T07:04:19;17.20;99.90
7494;DHT22;3788;49.902;8.590;2023-08-30T07:06:47;17.20;99.90
7494;DHT22;3788;49.902;8.590;2023-08-30T07:09:13;17.30;99.90
7494;DHT22;3788;49.902;8.590;2023-08-30T07:11:42;17.40;99.90
7494;DHT22;3788;49.902;8.590;2023-08-30T07:14:10;17.40;99.90
7494;DHT22;3788;49.902;8.590;2023-08-30T07:16:37;17.60;99.90
7494;DHT22;3788;49.902;8.590;2023-08-30T07:19:04;17.60;99.90
7494;DHT22;3788;49.902;8.590;2023-08-30T07:21:31;17.70;99.90
7494;DHT22;3788;49.902;8.590;2023-08-30T07:23:59;17.80;99.90
7494;DHT22;3788;49.902;8.590;2023-08-30T07:26:26;17.90;99.90
7494;DHT22;3788;49.902;8.590;2023-08-30T07:28:53;18.00;99.90
7494;DHT22;3788;49.902;8.590;2023-08-30T07:31:20;18.10;99.90
7494;DHT22;3788;49.902;8.590;2023-08-30T07:33:47;18.10;99.90
7494;DHT22;3788;49.902;8.590;2023-08-30T07:36:14;18.20;99.90
7494;DHT22;3788;49.902;8.590;2023-08-30T07:38:41;18.40;99.90
7494;DHT22;3788;49.902;8.590;2023-08-30T07:41:24;18.70;99.90
7494;DHT22;3788;49.902;8.590;2023-08-30T07:43:51;18.80;99.90
7494;DHT22;3788;49.902;8.590;2023-08-30T07:46:18;18.80;99.90
7494;DHT22;3788;49.902;8.590;2023-08-30T07:48:45;19.00;99.90
7494;DHT22;3788;49.902;8.590;2023-08-30T07:51:12;19.20;99.90
7494;DHT22;3788;49.902;8.590;2023-08-30T07:53:38;19.60;99.90
7494;DHT22;3788;49.902;8.590;2023-08-30T07:56:05;20.00;99.90
7494;DHT22;3788;49.902;8.590;2023-08-30T07:58:33;20.20;99.90
7494;DHT22;3788;49.902;8.590;2023-08-30T08:00:59;20.50;99.90
7494;DHT22;3788;49.902;8.590;2023-08-30T08:03:27;20.60;99.90
7494;DHT22;3788;49.902;8.590;2023-08-30T08:05:54;20.70;99.90
7494;DHT22;3788;49.902;8.590;2023-08-30T08:08:21;20.60;99.90
7494;DHT22;3788;49.902;8.590;2023-08-30T08:10:47;20.50;99.90
7494;DHT22;3788;49.902;8.590;2023-08-30T08:13:14;20.50;99.80
7494;DHT22;3788;49.902;8.590;2023-08-30T08:15:42;20.60;99.70
7494;DHT22;3788;49.902;8.590;2023-08-30T08:18:09;20.70;99.50
7494;DHT22;3788;49.902;8.590;2023-08-30T08:20:36;20.90;99.10
7494;DHT22;3788;49.902;8.590;2023-08-30T08:23:04;20.90;99.00
7494;DHT22;3788;49.902;8.590;2023-08-30T08:25:31;21.00;98.80
7494;DHT22;3788;49.902;8.590;2023-08-30T08:27:58;21.10;98.50
7494;DHT22;3788;49.902;8.590;2023-08-30T08:30:24;21.00;98.30
7494;DHT22;3788;49.902;8.590;2023-08-30T08:32:52;20.90;98.30
7494;DHT22;3788;49.902;8.590;2023-08-30T08:35:20;21.00;98.20
7494;DHT22;3788;49.902;8.590;2023-08-30T08:37:47;21.00;98.20
7494;DHT22;3788;49.902;8.590;2023-08-30T08:40:13;21.10;98.10
7494;DHT22;3788;49.902;8.590;2023-08-30T08:42:42;21.30;98.00
7494;DHT22;3788;49.902;8.590;2023-08-30T08:45:10;21.40;98.10
7494;DHT22;3788;49.902;8.590;2023-08-30T08:47:37;21.40;98.00
7494;DHT22;3788;49.902;8.590;2023-08-30T08:50:07;21.30;98.00
7494;DHT22;3788;49.902;8.590;2023-08-30T08:52:34;21.20;98.20
7494;DHT22;3788;49.902;8.590;2023-08-30T08:55:01;21.10;98.40
7494;DHT22;3788;49.902;8.590;2023-08-30T08:57:28;20.90;98.50
7494;DHT22;3788;49.902;8.590;2023-08-30T08:59:56;20.80;98.70
7494;DHT22;3788;49.902;8.590;2023-08-30T09:02:23;20.70;98.80
7494;DHT22;3788;49.902;8.590;2023-08-30T09:04:50;20.50;98.60
7494;DHT22;3788;49.902;8.590;2023-08-30T09:07:19;20.40;98.90
7494;DHT22;3788;49.902;8.590;2023-08-30T09:09:46;20.30;99.10
7494;DHT22;3788;49.902;8.590;2023-08-30T09:12:13;20.30;99.40
7494;DHT22;3788;49.902;8.590;2023-08-30T09:14:40;20.60;99.20
7494;DHT22;3788;49.902;8.590;2023-08-30T09:17:06;20.80;98.70
7494;DHT22;3788;49.902;8.590;2023-08-30T09:19:33;21.00;98.40
7494;DHT22;3788;49.902;8.590;2023-08-30T09:22:00;21.10;98.40
7494;DHT22;3788;49.902;8.590;2023-08-30T09:24:37;21.50;98.30
7494;DHT22;3788;49.902;8.590;2023-08-30T09:27:04;21.90;97.80
7494;DHT22;3788;49.902;8.590;2023-08-30T09:29:31;22.20;96.90
7494;DHT22;3788;49.902;8.590;2023-08-30T09:31:58;22.40;96.40
7494;DHT22;3788;49.902;8.590;2023-08-30T09:34:25;22.70;95.80
7494;DHT22;3788;49.902;8.590;2023-08-30T09:36:52;22.80;95.30
7494;DHT22;3788;49.902;8.590;2023-08-30T09:39:19;23.00;94.80
7494;DHT22;3788;49.902;8.590;2023-08-30T09:41:48;23.10;94.30
7494;DHT22;3788;49.902;8.590;2023-08-30T09:44:17;23.10;93.80
7494;DHT22;3788;49.902;8.590;2023-08-30T09:46:44;23.00;93.50
7494;DHT22;3788;49.902;8.590;2023-08-30T09:49:11;23.00;93.40
7494;DHT22;3788;49.902;8.590;2023-08-30T09:51:40;23.00;93.40
7494;DHT22;3788;49.902;8.590;2023-08-30T09:54:13;23.10;93.20
7494;DHT22;3788;49.902;8.590;2023-08-30T09:56:41;23.30;93.30
7494;DHT22;3788;49.902;8.590;2023-08-30T09:59:09;23.40;92.90
7494;DHT22;3788;49.902;8.590;2023-08-30T10:01:37;23.50;92.10
7494;DHT22;3788;49.902;8.590;2023-08-30T10:04:04;23.50;92.10
7494;DHT22;3788;49.902;8.590;2023-08-30T10:06:33;23.60;91.70
7494;DHT22;3788;49.902;8.590;2023-08-30T10:09:02;23.60;91.40
7494;DHT22;3788;49.902;8.590;2023-08-30T10:11:30;23.70;91.60
7494;DHT22;3788;49.902;8.590;2023-08-30T10:13:59;23.80;91.30
7494;DHT22;3788;49.902;8.590;2023-08-30T10:16:31;24.00;91.30
7494;DHT22;3788;49.902;8.590;2023-08-30T10:19:02;24.10;90.40
7494;DHT22;3788;49.902;8.590;2023-08-30T10:21:30;24.10;90.50
7494;DHT22;3788;49.902;8.590;2023-08-30T10:23:58;24.10;90.60
7494;DHT22;3788;49.902;8.590;2023-08-30T10:26:29;24.10;90.40
7494;DHT22;3788;49.902;8.590;2023-08-30T10:28:57;24.20;90.10
7494;DHT22;3788;49.902;8.590;2023-08-30T10:31:24;24.20;89.80
7494;DHT22;3788;49.902;8.590;2023-08-30T10:33:53;24.20;89.10
7494;DHT22;3788;49.902;8.590;2023-08-30T10:36:21;24.30;87.90
7494;DHT22;3788;49.902;8.590;2023-08-30T10:38:49;24.20;87.50
7494;DHT22;3788;49.902;8.590;2023-08-30T10:41:20;24.20;87.40
7494;DHT22;3788;49.902;8.590;2023-08-30T10:43:50;24.20;87.50
7494;DHT22;3788;49.902;8.590;2023-08-30T10:46:28;24.20;87.50
7494;DHT22;3788;49.902;8.590;2023-08-30T10:49:08;24.20;88.20
7494;DHT22;3788;49.902;8.590;2023-08-30T10:51:37;24.30;87.70
7494;DHT22;3788;49.902;8.590;2023-08-30T10:54:11;24.10;86.10
7494;DHT22;3788;49.902;8.590;2023-08-30T10:56:48;23.80;85.70
7494;DHT22;3788;49.902;8.590;2023-08-30T10:59:22;23.50;86.00
7494;DHT22;3788;49.902;8.590;2023-08-30T11:01:51;23.30;86.00
7494;DHT22;3788;49.902;8.590;2023-08-30T11:04:20;23.10;86.10
7494;DHT22;3788;49.902;8.590;2023-08-30T11:06:49;23.20;86.30
7494;DHT22;3788;49.902;8.590;2023-08-30T11:09:18;23.20;84.90
7494;DHT22;3788;49.902;8.590;2023-08-30T11:11:45;23.20;85.20
7494;DHT22;3788;49.902;8.590;2023-08-30T11:14:13;23.40;85.00
7494;DHT22;3788;49.902;8.590;2023-08-30T11:16:40;23.40;83.90
7494;DHT22;3788;49.902;8.590;2023-08-30T11:19:08;23.60;83.40
7494;DHT22;3788;49.902;8.590;2023-08-30T11:21:38;23.60;83.50
7494;DHT22;3788;49.902;8.590;2023-08-30T11:24:06;23.80;84.50
7494;DHT22;3788;49.902;8.590;2023-08-30T11:26:33;23.80;84.60
7494;DHT22;3788;49.902;8.590;2023-08-30T11:29:04;24.00;84.70
7494;DHT22;3788;49.902;8.590;2023-08-30T11:31:31;24.10;82.50
7494;DHT22;3788;49.902;8.590;2023-08-30T11:33:58;24.10;80.00
7494;DHT22;3788;49.902;8.590;2023-08-30T11:36:27;24.10;80.40
7494;DHT22;3788;49.902;8.590;2023-08-30T11:38:55;24.00;81.20
7494;DHT22;3788;49.902;8.590;2023-08-30T11:41:22;23.90;81.10
7494;DHT22;3788;49.902;8.590;2023-08-30T11:43:50;23.80;80.40
7494;DHT22;3788;49.902;8.590;2023-08-30T11:46:17;23.50;80.40
7494;DHT22;3788;49.902;8.590;2023-08-30T11:48:45;23.20;81.40
7494;DHT22;3788;49.902;8.590;2023-08-30T11:51:12;23.10;81.90
7494;DHT22;3788;49.902;8.590;2023-08-30T11:53:39;22.80;81.90
7494;DHT22;3788;49.902;8.590;2023-08-30T11:56:08;22.60;82.80
7494;DHT22;3788;49.902;8.590;2023-08-30T11:58:35;22.40;83.20
7494;DHT22;3788;49.902;8.590;2023-08-30T12:01:02;22.20;84.10
7494;DHT22;3788;49.902;8.590;2023-08-30T12:03:30;22.10;84.60
7494;DHT22;3788;49.902;8.590;2023-08-30T12:05:58;22.00;85.50
7494;DHT22;3788;49.902;8.590;2023-08-30T12:08:26;21.90;85.90
7494;DHT22;3788;49.902;8.590;2023-08-30T12:10:53;21.80;86.20
7494;DHT22;3788;49.902;8.590;2023-08-30T12:13:25;21.70;86.80
7494;DHT22;3788;49.902;8.590;2023-08-30T12:15:52;21.60;86.20
7494;DHT22;3788;49.902;8.590;2023-08-30T12:18:21;21.60;85.90
7494;DHT22;3788;49.902;8.590;2023-08-30T12:20:53;21.60;86.60
7494;DHT22;3788;49.902;8.590;2023-08-30T12:23:20;21.50;87.10
7494;DHT22;3788;49.902;8.590;2023-08-30T12:25:57;21.60;87.60
7494;DHT22;3788;49.902;8.590;2023-08-30T12:28:26;21.70;87.80
7494;DHT22;3788;49.902;8.590;2023-08-30T12:30:52;21.80;87.30
7494;DHT22;3788;49.902;8.590;2023-08-30T12:33:19;21.90;85.90
7494;DHT22;3788;49.902;8.590;2023-08-30T12:35:46;21.90;85.70
7494;DHT22;3788;49.902;8.590;2023-08-30T12:38:13;22.10;85.00
7494;DHT22;3788;49.902;8.590;2023-08-30T12:40:43;22.20;84.90
7494;DHT22;3788;49.902;8.590;2023-08-30T12:43:10;22.30;83.70
7494;DHT22;3788;49.902;8.590;2023-08-30T12:45:39;22.50;83.80
7494;DHT22;3788;49.902;8.590;2023-08-30T12:48:06;22.60;83.80
7494;DHT22;3788;49.902;8.590;2023-08-30T12:50:33;22.70;81.80
7494;DHT22;3788;49.902;8.590;2023-08-30T12:53:00;22.80;80.60
7494;DHT22;3788;49.902;8.590;2023-08-30T12:55:27;22.80;80.20
7494;DHT22;3788;49.902;8.590;2023-08-30T12:57:54;23.00;79.50
7494;DHT22;3788;49.902;8.590;2023-08-30T13:00:21;23.00;78.80
7494;DHT22;3788;49.902;8.590;2023-08-30T13:02:49;23.10;78.70
7494;DHT22;3788;49.902;8.590;2023-08-30T13:05:16;23.10;77.80
7494;DHT22;3788;49.902;8.590;2023-08-30T13:07:43;23.10;79.10
7494;DHT22;3788;49.902;8.590;2023-08-30T13:10:10;23.10;80.40
7494;DHT22;3788;49.902;8.590;2023-08-30T13:12:37;23.00;79.10
7494;DHT22;3788;49.902;8.590;2023-08-30T13:15:05;23.00;79.80
7494;DHT22;3788;49.902;8.590;2023-08-30T13:17:32;23.00;80.10
7494;DHT22;3788;49.902;8.590;2023-08-30T13:20:00;23.10;80.10
7494;DHT22;3788;49.902;8.590;2023-08-30T13:22:27;23.10;77.40
7494;DHT22;3788;49.902;8.590;2023-08-30T13:24:54;23.10;76.00
7494;DHT22;3788;49.902;8.590;2023-08-30T13:27:20;23.10;76.10
7494;DHT22;3788;49.902;8.590;2023-08-30T13:29:47;23.00;76.20
7494;DHT22;3788;49.902;8.590;2023-08-30T13:32:14;23.00;76.60
7494;DHT22;3788;49.902;8.590;2023-08-30T13:34:41;23.00;77.00
7494;DHT22;3788;49.902;8.590;2023-08-30T13:37:10;23.00;76.60
7494;DHT22;3788;49.902;8.590;2023-08-30T13:39:37;23.10;76.30
7494;DHT22;3788;49.902;8.590;2023-08-30T13:42:04;23.10;76.80
7494;DHT22;3788;49.902;8.590;2023-08-30T13:44:31;23.20;76.10
7494;DHT22;3788;49.902;8.590;2023-08-30T13:46:58;23.20;75.80
7494;DHT22;3788;49.902;8.590;2023-08-30T13:49:25;23.20;76.00
7494;DHT22;3788;49.902;8.590;2023-08-30T13:51:52;23.30;76.30
7494;DHT22;3788;49.902;8.590;2023-08-30T13:54:20;23.30;75.80
7494;DHT22;3788;49.902;8.590;2023-08-30T13:56:47;23.30;75.40
7494;DHT22;3788;49.902;8.590;2023-08-30T13:59:15;23.20;75.40
7494;DHT22;3788;49.902;8.590;2023-08-30T14:01:42;23.10;76.00
7494;DHT22;3788;49.902;8.590;2023-08-30T14:04:08;23.10;76.50
7494;DHT22;3788;49.902;8.590;2023-08-30T14:06:35;23.10;77.20
7494;DHT22;3788;49.902;8.590;2023-08-30T14:09:02;23.10;76.20
7494;DHT22;3788;49.902;8.590;2023-08-30T14:11:31;23.10;76.70
7494;DHT22;3788;49.902;8.590;2023-08-30T14:13:58;23.10;77.00
7494;DHT22;3788;49.902;8.590;2023-08-30T14:16:27;23.00;76.40
7494;DHT22;3788;49.902;8.590;2023-08-30T14:18:53;22.90;75.90
7494;DHT22;3788;49.902;8.590;2023-08-30T14:21:20;22.90;76.60
7494;DHT22;3788;49.902;8.590;2023-08-30T14:23:47;22.90;77.10
7494;DHT22;3788;49.902;8.590;2023-08-30T14:26:13;22.90;77.40
7494;DHT22;3788;49.902;8.590;2023-08-30T14:28:41;22.90;77.50
7494;DHT22;3788;49.902;8.590;2023-08-30T14:31:09;22.90;77.90
7494;DHT22;3788;49.902;8.590;2023-08-30T14:33:36;23.00;78.30
7494;DHT22;3788;49.902;8.590;2023-08-30T14:36:03;23.10;77.70
7494;DHT22;3788;49.902;8.590;2023-08-30T14:38:35;23.00;77.70
7494;DHT22;3788;49.902;8.590;2023-08-30T14:41:02;22.90;78.00
7494;DHT22;3788;49.902;8.590;2023-08-30T14:43:29;22.80;77.30
7494;DHT22;3788;49.902;8.590;2023-08-30T14:46:00;22.80;77.70
7494;DHT22;3788;49.902;8.590;2023-08-30T14:48:27;22.70;77.50
7494;DHT22;3788;49.902;8.590;2023-08-30T14:50:54;22.70;78.00
7494;DHT22;3788;49.902;8.590;2023-08-30T14:53:20;22.60;78.20
7494;DHT22;3788;49.902;8.590;2023-08-30T14:55:47;22.60;78.60
7494;DHT22;3788;49.902;8.590;2023-08-30T14:58:14;22.60;78.90
7494;DHT22;3788;49.902;8.590;2023-08-30T15:00:41;22.50;78.70
7494;DHT22;3788;49.902;8.590;2023-08-30T15:03:09;22.50;79.60
7494;DHT22;3788;49.902;8.590;2023-08-30T15:05:35;22.50;79.20
7494;DHT22;3788;49.902;8.590;2023-08-30T15:08:16;22.60;79.30
7494;DHT22;3788;49.902;8.590;2023-08-30T15:10:43;22.60;79.10
7494;DHT22;3788;49.902;8.590;2023-08-30T15:13:10;22.70;79.30
7494;DHT22;3788;49.902;8.590;2023-08-30T15:15:37;22.80;79.40
7494;DHT22;3788;49.902;8.590;2023-08-30T15:18:04;23.00;79.00
7494;DHT22;3788;49.902;8.590;2023-08-30T15:20:32;23.00;77.50
7494;DHT22;3788;49.902;8.590;2023-08-30T15:22:59;23.10;76.00
7494;DHT22;3788;49.902;8.590;2023-08-30T15:25:26;23.00;77.20
7494;DHT22;3788;49.902;8.590;2023-08-30T15:27:52;23.00;77.70
7494;DHT22;3788;49.902;8.590;2023-08-30T15:30:19;23.00;77.80
7494;DHT22;3788;49.902;8.590;2023-08-30T15:32:46;23.00;77.10
7494;DHT22;3788;49.902;8.590;2023-08-30T15:35:17;23.00;76.90
7494;DHT22;3788;49.902;8.590;2023-08-30T15:37:45;23.00;76.50
7494;DHT22;3788;49.902;8.590;2023-08-30T15:40:11;22.90;75.80
7494;DHT22;3788;49.902;8.590;2023-08-30T15:42:38;22.80;75.70
7494;DHT22;3788;49.902;8.590;2023-08-30T15:45:06;22.70;76.00
7494;DHT22;3788;49.902;8.590;2023-08-30T15:47:32;22.70;76.90
7494;DHT22;3788;49.902;8.590;2023-08-30T15:49:59;22.60;76.60
7494;DHT22;3788;49.902;8.590;2023-08-30T15:52:26;22.50;76.90
7494;DHT22;3788;49.902;8.590;2023-08-30T15:54:54;22.40;76.80
7494;DHT22;3788;49.902;8.590;2023-08-30T15:57:21;22.30;76.90
7494;DHT22;3788;49.902;8.590;2023-08-30T15:59:47;22.30;77.10
7494;DHT22;3788;49.902;8.590;2023-08-30T16:02:14;22.20;76.80
7494;DHT22;3788;49.902;8.590;2023-08-30T16:04:40;22.10;77.20